sensor_id;sensor_type;location;lat;lon;timestamp;P1;durP1;ratioP1;P2;durP2;ratioP2
44732;SDS011;30460;50.836;4.390;2022-12-18T00:00:33;29.13;;;20.87;;
44732;SDS011;30460;50.836;4.390;2022-12-18T00:02:59;30.30;;;21.70;;
44732;SDS011;30460;50.836;4.390;2022-12-18T00:05:25;29.27;;;21.13;;
44732;SDS011;30460;50.836;4.390;2022-12-18T00:07:51;31.17;;;21.30;;
44732;SDS011;30460;50.836;4.390;2022-12-18T00:10:17;29.57;;;20.27;;
44732;SDS011;30460;50.836;4.390;2022-12-18T00:12:44;29.80;;;21.07;;
44732;SDS011;30460;50.836;4.390;2022-12-18T00:15:10;30.10;;;20.27;;
44732;SDS011;30460;50.836;4.390;2022-12-18T00:17:36;29.93;;;21.57;;
44732;SDS011;30460;50.836;4.390;2022-12-18T00:20:02;30.03;;;20.97;;
44732;SDS011;30460;50.836;4.390;2022-12-18T00:22:28;28.33;;;20.43;;
44732;SDS011;30460;50.836;4.390;2022-12-18T00:24:54;28.13;;;20.20;;
44732;SDS011;30460;50.836;4.390;2022-12-18T00:27:20;29.23;;;20.20;;
44732;SDS011;30460;50.836;4.390;2022-12-18T00:29:47;28.93;;;19.37;;
44732;SDS011;30460;50.836;4.390;2022-12-18T00:32:14;28.23;;;19.73;;
44732;SDS011;30460;50.836;4.390;2022-12-18T00:34:40;28.53;;;19.40;;
44732;SDS011;30460;50.836;4.390;2022-12-18T00:37:06;26.83;;;19.03;;
44732;SDS011;30460;50.836;4.390;2022-12-18T00:39:32;25.67;;;17.83;;
44732;SDS011;30460;50.836;4.390;2022-12-18T00:41:58;25.63;;;18.17;;
44732;SDS011;30460;50.836;4.390;2022-12-18T00:44:42;24.67;;;17.90;;
44732;SDS011;30460;50.836;4.390;2022-12-18T00:47:08;24.33;;;17.10;;
44732;SDS011;30460;50.836;4.390;2022-12-18T00:49:34;24.53;;;17.13;;
44732;SDS011;30460;50.836;4.390;2022-12-18T00:52:00;25.30;;;17.47;;
44732;SDS011;30460;50.836;4.390;2022-12-18T00:54:26;24.73;;;17.50;;
44732;SDS011;30460;50.836;4.390;2022-12-18T00:56:52;20.53;;;15.33;;
44732;SDS011;30460;50.836;4.390;2022-12-18T00:59:20;22.10;;;16.40;;
44732;SDS011;30460;50.836;4.390;2022-12-18T01:01:46;23.33;;;15.90;;
44732;SDS011;30460;50.836;4.390;2022-12-18T01:04:12;23.97;;;16.80;;
44732;SDS011;30460;50.836;4.390;2022-12-18T01:06:38;22.37;;;16.00;;
44732;SDS011;30460;50.836;4.390;2022-12-18T01:09:05;19.57;;;15.23;;
44732;SDS011;30460;50.836;4.390;2022-12-18T01:11:31;23.97;;;16.30;;
44732;SDS011;30460;50.836;4.390;2022-12-18T01:13:57;21.73;;;16.27;;
44732;SDS011;30460;50.836;4.390;2022-12-18T01:16:24;21.40;;;15.90;;
44732;SDS011;30460;50.836;4.390;2022-12-18T01:18:53;22.03;;;15.80;;
44732;SDS011;30460;50.836;4.390;2022-12-18T01:21:19;20.67;;;14.90;;
44732;SDS011;30460;50.836;4.390;2022-12-18T01:23:46;21.03;;;14.90;;
44732;SDS011;30460;50.836;4.390;2022-12-18T01:26:15;23.07;;;15.53;;
44732;SDS011;30460;50.836;4.390;2022-12-18T01:28:41;21.90;;;14.90;;
44732;SDS011;30460;50.836;4.390;2022-12-18T01:31:12;20.20;;;14.50;;
44732;SDS011;30460;50.836;4.390;2022-12-18T01:33:38;18.90;;;13.67;;
44732;SDS011;30460;50.836;4.390;2022-12-18T01:36:05;21.10;;;14.87;;
44732;SDS011;30460;50.836;4.390;2022-12-18T01:38:31;19.07;;;14.00;;
44732;SDS011;30460;50.836;4.390;2022-12-18T01:40:57;20.67;;;13.40;;
44732;SDS011;30460;50.836;4.390;2022-12-18T01:43:40;18.73;;;13.03;;
44732;SDS011;30460;50.836;4.390;2022-12-18T01:46:06;17.97;;;13.00;;
44732;SDS011;30460;50.836;4.390;2022-12-18T01:48:32;21.60;;;14.00;;
44732;SDS011;30460;50.836;4.390;2022-12-18T01:51:01;17.37;;;13.07;;
44732;SDS011;30460;50.836;4.390;2022-12-18T01:53:27;17.27;;;12.57;;
44732;SDS011;30460;50.836;4.390;2022-12-18T01:55:55;17.60;;;13.17;;
44732;SDS011;30460;50.836;4.390;2022-12-18T02:00:59;18.33;;;12.80;;
44732;SDS011;30460;50.836;4.390;2022-12-18T02:03:25;17.70;;;12.80;;
44732;SDS011;30460;50.836;4.390;2022-12-18T02:13:30;17.83;;;12.93;;
44732;SDS011;30460;50.836;4.390;2022-12-18T02:16:03;17.33;;;12.63;;
44732;SDS011;30460;50.836;4.390;2022-12-18T02:18:36;19.07;;;13.43;;
44732;SDS011;30460;50.836;4.390;2022-12-18T02:21:08;15.77;;;12.27;;
44732;SDS011;30460;50.836;4.390;2022-12-18T02:24:01;16.53;;;11.60;;
44732;SDS011;30460;50.836;4.390;2022-12-18T02:26:33;16.20;;;11.97;;
44732;SDS011;30460;50.836;4.390;2022-12-18T02:31:53;15.87;;;11.73;;
44732;SDS011;30460;50.836;4.390;2022-12-18T02:34:22;16.57;;;12.03;;
44732;SDS011;30460;50.836;4.390;2022-12-18T02:36:49;18.33;;;12.90;;
44732;SDS011;30460;50.836;4.390;2022-12-18T02:39:16;16.57;;;12.10;;
44732;SDS011;30460;50.836;4.390;2022-12-18T02:41:43;17.40;;;12.40;;
44732;SDS011;30460;50.836;4.390;2022-12-18T02:44:10;15.67;;;11.60;;
44732;SDS011;30460;50.836;4.390;2022-12-18T02:46:38;16.60;;;12.40;;
44732;SDS011;30460;50.836;4.390;2022-12-18T02:49:06;16.37;;;12.17;;
44732;SDS011;30460;50.836;4.390;2022-12-18T02:51:39;16.97;;;11.77;;
44732;SDS011;30460;50.836;4.390;2022-12-18T02:56:56;16.50;;;11.90;;
44732;SDS011;30460;50.836;4.390;2022-12-18T02:59:31;14.77;;;12.00;;
44732;SDS011;30460;50.836;4.390;2022-12-18T03:02:16;15.77;;;12.40;;
44732;SDS011;30460;50.836;4.390;2022-12-18T03:04:55;17.33;;;11.77;;
44732;SDS011;30460;50.836;4.390;2022-12-18T03:07:25;17.70;;;12.10;;
44732;SDS011;30460;50.836;4.390;2022-12-18T03:09:51;16.87;;;12.43;;
44732;SDS011;30460;50.836;4.390;2022-12-18T03:12:20;17.17;;;12.33;;
44732;SDS011;30460;50.836;4.390;2022-12-18T03:17:23;16.47;;;12.40;;
44732;SDS011;30460;50.836;4.390;2022-12-18T03:19:51;15.57;;;11.93;;
44732;SDS011;30460;50.836;4.390;2022-12-18T03:22:18;13.73;;;11.13;;
44732;SDS011;30460;50.836;4.390;2022-12-18T03:24:45;17.87;;;12.60;;
44732;SDS011;30460;50.836;4.390;2022-12-18T03:27:12;15.63;;;11.90;;
44732;SDS011;30460;50.836;4.390;2022-12-18T03:29:42;17.10;;;12.20;;
44732;SDS011;30460;50.836;4.390;2022-12-18T03:32:10;18.17;;;12.53;;
44732;SDS011;30460;50.836;4.390;2022-12-18T03:34:37;18.07;;;11.43;;
44732;SDS011;30460;50.836;4.390;2022-12-18T03:37:05;15.40;;;11.83;;
44732;SDS011;30460;50.836;4.390;2022-12-18T03:39:31;15.57;;;11.63;;
44732;SDS011;30460;50.836;4.390;2022-12-18T03:44:27;18.73;;;11.77;;
44732;SDS011;30460;50.836;4.390;2022-12-18T03:49:30;14.27;;;10.63;;
44732;SDS011;30460;50.836;4.390;2022-12-18T03:52:02;16.93;;;11.50;;
44732;SDS011;30460;50.836;4.390;2022-12-18T03:54:29;13.90;;;10.73;;
44732;SDS011;30460;50.836;4.390;2022-12-18T03:57:00;14.80;;;11.27;;
44732;SDS011;30460;50.836;4.390;2022-12-18T03:59:27;15.37;;;10.80;;
44732;SDS011;30460;50.836;4.390;2022-12-18T04:01:54;16.23;;;11.00;;
44732;SDS011;30460;50.836;4.390;2022-12-18T04:04:21;13.97;;;10.60;;
44732;SDS011;30460;50.836;4.390;2022-12-18T04:06:47;14.63;;;10.83;;
44732;SDS011;30460;50.836;4.390;2022-12-18T04:09:14;14.80;;;11.13;;
44732;SDS011;30460;50.836;4.390;2022-12-18T04:11:41;14.30;;;11.33;;
44732;SDS011;30460;50.836;4.390;2022-12-18T04:14:09;14.30;;;10.63;;
44732;SDS011;30460;50.836;4.390;2022-12-18T04:16:35;13.17;;;10.30;;
44732;SDS011;30460;50.836;4.390;2022-12-18T04:19:01;14.37;;;11.00;;
44732;SDS011;30460;50.836;4.390;2022-12-18T04:21:27;14.67;;;10.87;;
44732;SDS011;30460;50.836;4.390;2022-12-18T04:23:53;13.77;;;11.07;;
44732;SDS011;30460;50.836;4.390;2022-12-18T04:26:19;15.23;;;10.60;;
44732;SDS011;30460;50.836;4.390;2022-12-18T04:28:45;14.83;;;11.53;;
44732;SDS011;30460;50.836;4.390;2022-12-18T04:31:11;14.53;;;10.37;;
44732;SDS011;30460;50.836;4.390;2022-12-18T04:33:37;13.63;;;10.37;;
44732;SDS011;30460;50.836;4.390;2022-12-18T04:36:03;15.20;;;11.30;;
44732;SDS011;30460;50.836;4.390;2022-12-18T04:38:29;15.00;;;10.90;;
44732;SDS011;30460;50.836;4.390;2022-12-18T04:40:55;15.13;;;10.63;;
44732;SDS011;30460;50.836;4.390;2022-12-18T04:43:21;13.63;;;10.60;;
44732;SDS011;30460;50.836;4.390;2022-12-18T04:45:47;15.67;;;11.10;;
44732;SDS011;30460;50.836;4.390;2022-12-18T04:48:13;13.20;;;10.37;;
44732;SDS011;30460;50.836;4.390;2022-12-18T04:50:39;15.70;;;11.00;;
44732;SDS011;30460;50.836;4.390;2022-12-18T04:53:05;14.70;;;10.63;;
44732;SDS011;30460;50.836;4.390;2022-12-18T04:55:31;14.03;;;10.57;;
44732;SDS011;30460;50.836;4.390;2022-12-18T04:57:57;16.00;;;10.93;;
44732;SDS011;30460;50.836;4.390;2022-12-18T05:00:23;14.57;;;10.80;;
44732;SDS011;30460;50.836;4.390;2022-12-18T05:02:49;15.93;;;10.90;;
44732;SDS011;30460;50.836;4.390;2022-12-18T05:05:15;13.13;;;10.70;;
44732;SDS011;30460;50.836;4.390;2022-12-18T05:07:41;14.67;;;10.53;;
44732;SDS011;30460;50.836;4.390;2022-12-18T05:10:07;13.07;;;10.30;;
44732;SDS011;30460;50.836;4.390;2022-12-18T05:12:34;14.23;;;10.53;;
44732;SDS011;30460;50.836;4.390;2022-12-18T05:15:20;13.83;;;9.77;;
44732;SDS011;30460;50.836;4.390;2022-12-18T05:17:46;14.30;;;10.40;;
44732;SDS011;30460;50.836;4.390;2022-12-18T05:20:11;15.87;;;11.00;;
44732;SDS011;30460;50.836;4.390;2022-12-18T05:22:37;15.10;;;10.40;;
44732;SDS011;30460;50.836;4.390;2022-12-18T05:25:03;16.47;;;10.90;;
44732;SDS011;30460;50.836;4.390;2022-12-18T05:27:30;14.70;;;10.60;;
44732;SDS011;30460;50.836;4.390;2022-12-18T05:29:57;13.90;;;10.40;;
44732;SDS011;30460;50.836;4.390;2022-12-18T05:32:22;13.10;;;10.20;;
44732;SDS011;30460;50.836;4.390;2022-12-18T05:34:48;13.47;;;9.70;;
44732;SDS011;30460;50.836;4.390;2022-12-18T05:37:14;14.13;;;10.13;;
44732;SDS011;30460;50.836;4.390;2022-12-18T05:39:42;12.20;;;9.80;;
44732;SDS011;30460;50.836;4.390;2022-12-18T05:42:08;14.83;;;9.47;;
44732;SDS011;30460;50.836;4.390;2022-12-18T05:44:34;12.20;;;9.33;;
44732;SDS011;30460;50.836;4.390;2022-12-18T05:47:00;14.37;;;9.90;;
44732;SDS011;30460;50.836;4.390;2022-12-18T05:49:27;12.53;;;9.67;;
44732;SDS011;30460;50.836;4.390;2022-12-18T05:51:53;11.80;;;8.40;;
44732;SDS011;30460;50.836;4.390;2022-12-18T05:54:19;11.00;;;8.37;;
44732;SDS011;30460;50.836;4.390;2022-12-18T05:56:45;11.97;;;8.73;;
44732;SDS011;30460;50.836;4.390;2022-12-18T05:59:11;12.50;;;8.80;;
44732;SDS011;30460;50.836;4.390;2022-12-18T06:01:37;12.77;;;8.47;;
44732;SDS011;30460;50.836;4.390;2022-12-18T06:04:04;10.70;;;8.13;;
44732;SDS011;30460;50.836;4.390;2022-12-18T06:06:30;11.60;;;8.50;;
44732;SDS011;30460;50.836;4.390;2022-12-18T06:08:56;11.13;;;8.67;;
44732;SDS011;30460;50.836;4.390;2022-12-18T06:11:23;10.53;;;8.67;;
44732;SDS011;30460;50.836;4.390;2022-12-18T06:13:53;10.77;;;8.40;;
44732;SDS011;30460;50.836;4.390;2022-12-18T06:16:19;10.97;;;7.80;;
44732;SDS011;30460;50.836;4.390;2022-12-18T06:18:45;12.23;;;8.73;;
44732;SDS011;30460;50.836;4.390;2022-12-18T06:21:11;11.33;;;8.50;;
44732;SDS011;30460;50.836;4.390;2022-12-18T06:23:38;9.97;;;7.50;;
44732;SDS011;30460;50.836;4.390;2022-12-18T06:26:07;10.10;;;7.93;;
44732;SDS011;30460;50.836;4.390;2022-12-18T06:28:34;9.67;;;7.67;;
44732;SDS011;30460;50.836;4.390;2022-12-18T06:30:59;11.20;;;7.70;;
44732;SDS011;30460;50.836;4.390;2022-12-18T06:33:26;11.10;;;8.07;;
44732;SDS011;30460;50.836;4.390;2022-12-18T06:35:53;11.73;;;7.67;;
44732;SDS011;30460;50.836;4.390;2022-12-18T06:38:19;8.77;;;7.00;;
44732;SDS011;30460;50.836;4.390;2022-12-18T06:40:45;10.80;;;6.93;;
44732;SDS011;30460;50.836;4.390;2022-12-18T06:43:11;9.73;;;7.70;;
44732;SDS011;30460;50.836;4.390;2022-12-18T06:45:37;9.47;;;7.00;;
44732;SDS011;30460;50.836;4.390;2022-12-18T06:48:03;9.20;;;7.57;;
44732;SDS011;30460;50.836;4.390;2022-12-18T06:50:28;10.10;;;6.83;;
44732;SDS011;30460;50.836;4.390;2022-12-18T06:52:54;9.57;;;7.00;;
44732;SDS011;30460;50.836;4.390;2022-12-18T06:55:21;7.97;;;7.03;;
44732;SDS011;30460;50.836;4.390;2022-12-18T06:57:47;11.00;;;7.97;;
44732;SDS011;30460;50.836;4.390;2022-12-18T07:00:13;10.23;;;7.67;;
44732;SDS011;30460;50.836;4.390;2022-12-18T07:02:39;10.53;;;7.57;;
44732;SDS011;30460;50.836;4.390;2022-12-18T07:05:05;10.13;;;7.27;;
44732;SDS011;30460;50.836;4.390;2022-12-18T07:07:32;9.07;;;7.13;;
44732;SDS011;30460;50.836;4.390;2022-12-18T07:09:59;8.83;;;7.33;;
44732;SDS011;30460;50.836;4.390;2022-12-18T07:12:26;8.63;;;6.63;;
44732;SDS011;30460;50.836;4.390;2022-12-18T07:14:52;9.37;;;7.63;;
44732;SDS011;30460;50.836;4.390;2022-12-18T07:17:18;11.00;;;7.83;;
44732;SDS011;30460;50.836;4.390;2022-12-18T07:19:44;10.13;;;7.47;;
44732;SDS011;30460;50.836;4.390;2022-12-18T07:22:10;10.30;;;7.67;;
44732;SDS011;30460;50.836;4.390;2022-12-18T07:24:36;8.70;;;7.13;;
44732;SDS011;30460;50.836;4.390;2022-12-18T07:27:02;7.90;;;6.60;;
44732;SDS011;30460;50.836;4.390;2022-12-18T07:29:29;9.20;;;7.10;;
44732;SDS011;30460;50.836;4.390;2022-12-18T07:31:55;9.13;;;7.20;;
44732;SDS011;30460;50.836;4.390;2022-12-18T07:34:21;10.43;;;7.83;;
44732;SDS011;30460;50.836;4.390;2022-12-18T07:36:47;10.57;;;7.97;;
44732;SDS011;30460;50.836;4.390;2022-12-18T07:39:13;8.63;;;6.97;;
44732;SDS011;30460;50.836;4.390;2022-12-18T07:41:39;9.93;;;7.77;;
44732;SDS011;30460;50.836;4.390;2022-12-18T07:44:10;10.30;;;7.60;;
44732;SDS011;30460;50.836;4.390;2022-12-18T07:46:36;9.57;;;7.20;;
44732;SDS011;30460;50.836;4.390;2022-12-18T07:49:02;10.03;;;7.30;;
44732;SDS011;30460;50.836;4.390;2022-12-18T07:51:28;10.07;;;7.10;;
44732;SDS011;30460;50.836;4.390;2022-12-18T07:53:54;11.70;;;7.90;;
44732;SDS011;30460;50.836;4.390;2022-12-18T07:56:20;10.87;;;7.73;;
44732;SDS011;30460;50.836;4.390;2022-12-18T07:58:46;9.93;;;7.27;;
44732;SDS011;30460;50.836;4.390;2022-12-18T08:01:12;9.77;;;7.03;;
44732;SDS011;30460;50.836;4.390;2022-12-18T08:03:39;9.40;;;6.50;;
44732;SDS011;30460;50.836;4.390;2022-12-18T08:06:06;8.47;;;7.07;;
44732;SDS011;30460;50.836;4.390;2022-12-18T08:08:33;9.93;;;7.83;;
44732;SDS011;30460;50.836;4.390;2022-12-18T08:10:59;10.00;;;7.40;;
44732;SDS011;30460;50.836;4.390;2022-12-18T08:13:25;9.20;;;7.10;;
44732;SDS011;30460;50.836;4.390;2022-12-18T08:15:56;15.03;;;10.87;;
44732;SDS011;30460;50.836;4.390;2022-12-18T08:18:22;11.57;;;8.30;;
44732;SDS011;30460;50.836;4.390;2022-12-18T08:20:48;9.87;;;7.60;;
44732;SDS011;30460;50.836;4.390;2022-12-18T08:23:14;9.50;;;7.50;;
44732;SDS011;30460;50.836;4.390;2022-12-18T08:25:40;9.67;;;7.43;;
44732;SDS011;30460;50.836;4.390;2022-12-18T08:28:06;9.93;;;6.93;;
44732;SDS011;30460;50.836;4.390;2022-12-18T08:30:32;9.10;;;7.00;;
44732;SDS011;30460;50.836;4.390;2022-12-18T08:32:58;8.97;;;7.13;;
44732;SDS011;30460;50.836;4.390;2022-12-18T08:35:24;9.87;;;7.13;;
44732;SDS011;30460;50.836;4.390;2022-12-18T08:37:51;10.03;;;7.27;;
44732;SDS011;30460;50.836;4.390;2022-12-18T08:40:17;9.77;;;7.40;;
44732;SDS011;30460;50.836;4.390;2022-12-18T08:42:43;10.70;;;7.93;;
44732;SDS011;30460;50.836;4.390;2022-12-18T08:45:28;13.60;;;7.97;;
44732;SDS011;30460;50.836;4.390;2022-12-18T08:47:54;10.73;;;8.17;;
44732;SDS011;30460;50.836;4.390;2022-12-18T08:50:20;11.60;;;8.20;;
44732;SDS011;30460;50.836;4.390;2022-12-18T08:52:46;10.70;;;7.63;;
44732;SDS011;30460;50.836;4.390;2022-12-18T08:55:12;11.03;;;8.27;;
44732;SDS011;30460;50.836;4.390;2022-12-18T08:57:38;10.10;;;7.73;;
44732;SDS011;30460;50.836;4.390;2022-12-18T09:00:04;10.20;;;7.67;;
44732;SDS011;30460;50.836;4.390;2022-12-18T09:02:30;10.17;;;7.90;;
44732;SDS011;30460;50.836;4.390;2022-12-18T09:04:56;10.60;;;8.20;;
44732;SDS011;30460;50.836;4.390;2022-12-18T09:07:22;11.10;;;8.50;;
44732;SDS011;30460;50.836;4.390;2022-12-18T09:09:49;9.80;;;7.67;;
44732;SDS011;30460;50.836;4.390;2022-12-18T09:12:15;10.07;;;7.90;;
44732;SDS011;30460;50.836;4.390;2022-12-18T09:14:41;12.03;;;8.47;;
44732;SDS011;30460;50.836;4.390;2022-12-18T09:17:07;12.17;;;9.20;;
44732;SDS011;30460;50.836;4.390;2022-12-18T09:19:34;12.20;;;8.27;;
44732;SDS011;30460;50.836;4.390;2022-12-18T09:22:00;12.00;;;9.00;;
44732;SDS011;30460;50.836;4.390;2022-12-18T09:24:26;12.90;;;9.17;;
44732;SDS011;30460;50.836;4.390;2022-12-18T09:26:55;12.03;;;9.03;;
44732;SDS011;30460;50.836;4.390;2022-12-18T09:29:21;14.23;;;9.43;;
44732;SDS011;30460;50.836;4.390;2022-12-18T09:31:47;12.87;;;9.43;;
44732;SDS011;30460;50.836;4.390;2022-12-18T09:34:14;11.63;;;8.53;;
44732;SDS011;30460;50.836;4.390;2022-12-18T09:36:40;12.70;;;9.37;;
44732;SDS011;30460;50.836;4.390;2022-12-18T09:39:07;13.13;;;9.00;;
44732;SDS011;30460;50.836;4.390;2022-12-18T09:47:09;14.43;;;9.93;;
44732;SDS011;30460;50.836;4.390;2022-12-18T09:49:38;12.23;;;9.67;;
44732;SDS011;30460;50.836;4.390;2022-12-18T09:52:24;14.47;;;10.13;;
44732;SDS011;30460;50.836;4.390;2022-12-18T09:55:11;14.33;;;9.90;;
44732;SDS011;30460;50.836;4.390;2022-12-18T09:57:39;14.93;;;11.00;;
44732;SDS011;30460;50.836;4.390;2022-12-18T10:00:29;14.00;;;10.43;;
44732;SDS011;30460;50.836;4.390;2022-12-18T10:03:02;16.83;;;10.53;;
44732;SDS011;30460;50.836;4.390;2022-12-18T10:05:33;14.33;;;10.20;;
44732;SDS011;30460;50.836;4.390;2022-12-18T10:10:38;14.13;;;10.60;;
44732;SDS011;30460;50.836;4.390;2022-12-18T10:18:22;16.37;;;11.83;;
44732;SDS011;30460;50.836;4.390;2022-12-18T10:20:58;13.90;;;11.07;;
44732;SDS011;30460;50.836;4.390;2022-12-18T10:26:05;16.77;;;11.53;;
44732;SDS011;30460;50.836;4.390;2022-12-18T10:28:32;15.77;;;11.60;;
44732;SDS011;30460;50.836;4.390;2022-12-18T10:31:02;15.63;;;11.83;;
44732;SDS011;30460;50.836;4.390;2022-12-18T10:33:28;15.33;;;11.73;;
44732;SDS011;30460;50.836;4.390;2022-12-18T10:35:55;16.17;;;11.77;;
44732;SDS011;30460;50.836;4.390;2022-12-18T10:41:00;14.60;;;12.20;;
44732;SDS011;30460;50.836;4.390;2022-12-18T10:48:25;16.60;;;12.63;;
44732;SDS011;30460;50.836;4.390;2022-12-18T10:50:51;16.87;;;12.63;;
44732;SDS011;30460;50.836;4.390;2022-12-18T10:53:24;15.70;;;12.47;;
44732;SDS011;30460;50.836;4.390;2022-12-18T10:55:51;17.47;;;13.27;;
44732;SDS011;30460;50.836;4.390;2022-12-18T11:03:35;16.83;;;12.70;;
44732;SDS011;30460;50.836;4.390;2022-12-18T11:06:06;20.20;;;15.33;;
44732;SDS011;30460;50.836;4.390;2022-12-18T11:08:33;17.07;;;13.27;;
44732;SDS011;30460;50.836;4.390;2022-12-18T11:10:59;16.87;;;12.67;;
44732;SDS011;30460;50.836;4.390;2022-12-18T11:13:26;19.60;;;14.33;;
44732;SDS011;30460;50.836;4.390;2022-12-18T11:15:52;21.03;;;15.77;;
44732;SDS011;30460;50.836;4.390;2022-12-18T11:20:50;17.63;;;13.03;;
44732;SDS011;30460;50.836;4.390;2022-12-18T11:23:16;23.50;;;11.83;;
44732;SDS011;30460;50.836;4.390;2022-12-18T11:25:58;17.33;;;12.10;;
44732;SDS011;30460;50.836;4.390;2022-12-18T11:28:25;15.03;;;11.90;;
44732;SDS011;30460;50.836;4.390;2022-12-18T11:33:37;16.70;;;12.50;;
44732;SDS011;30460;50.836;4.390;2022-12-18T11:36:03;16.10;;;11.87;;
44732;SDS011;30460;50.836;4.390;2022-12-18T11:41:04;18.00;;;12.87;;
44732;SDS011;30460;50.836;4.390;2022-12-18T11:43:33;17.10;;;13.13;;
44732;SDS011;30460;50.836;4.390;2022-12-18T11:46:02;15.27;;;11.73;;
44732;SDS011;30460;50.836;4.390;2022-12-18T11:50:57;17.93;;;12.37;;
44732;SDS011;30460;50.836;4.390;2022-12-18T11:53:24;16.73;;;12.07;;
44732;SDS011;30460;50.836;4.390;2022-12-18T11:58:46;15.27;;;11.77;;
44732;SDS011;30460;50.836;4.390;2022-12-18T12:11:35;17.47;;;12.13;;
44732;SDS011;30460;50.836;4.390;2022-12-18T12:14:06;18.73;;;13.20;;
44732;SDS011;30460;50.836;4.390;2022-12-18T12:19:33;17.03;;;12.13;;
44732;SDS011;30460;50.836;4.390;2022-12-18T12:27:20;18.43;;;13.17;;
44732;SDS011;30460;50.836;4.390;2022-12-18T12:35:25;19.10;;;12.87;;
44732;SDS011;30460;50.836;4.390;2022-12-18T12:40:33;19.27;;;13.00;;
44732;SDS011;30460;50.836;4.390;2022-12-18T12:43:02;20.53;;;14.03;;
44732;SDS011;30460;50.836;4.390;2022-12-18T12:45:55;19.27;;;13.40;;
44732;SDS011;30460;50.836;4.390;2022-12-18T12:50:58;17.73;;;13.37;;
44732;SDS011;30460;50.836;4.390;2022-12-18T12:53:34;22.33;;;14.37;;
44732;SDS011;30460;50.836;4.390;2022-12-18T12:56:01;18.90;;;13.10;;
44732;SDS011;30460;50.836;4.390;2022-12-18T12:58:34;19.57;;;13.87;;
44732;SDS011;30460;50.836;4.390;2022-12-18T13:01:09;18.53;;;13.03;;
44732;SDS011;30460;50.836;4.390;2022-12-18T13:08:59;21.37;;;15.57;;
44732;SDS011;30460;50.836;4.390;2022-12-18T13:11:38;20.23;;;14.10;;
44732;SDS011;30460;50.836;4.390;2022-12-18T13:14:38;21.77;;;14.53;;
44732;SDS011;30460;50.836;4.390;2022-12-18T13:22:22;21.10;;;14.50;;
44732;SDS011;30460;50.836;4.390;2022-12-18T13:24:49;22.17;;;15.10;;
44732;SDS011;30460;50.836;4.390;2022-12-18T13:30:00;20.97;;;15.07;;
44732;SDS011;30460;50.836;4.390;2022-12-18T13:32:26;22.77;;;15.97;;
44732;SDS011;30460;50.836;4.390;2022-12-18T13:37:43;21.27;;;15.20;;
44732;SDS011;30460;50.836;4.390;2022-12-18T13:43:01;22.03;;;15.73;;
44732;SDS011;30460;50.836;4.390;2022-12-18T13:45:58;25.80;;;17.77;;
44732;SDS011;30460;50.836;4.390;2022-12-18T13:48:25;25.67;;;16.43;;
44732;SDS011;30460;50.836;4.390;2022-12-18T13:50:56;24.23;;;16.13;;
44732;SDS011;30460;50.836;4.390;2022-12-18T13:53:26;22.83;;;15.37;;
44732;SDS011;30460;50.836;4.390;2022-12-18T13:55:54;24.63;;;16.53;;
44732;SDS011;30460;50.836;4.390;2022-12-18T13:58:21;23.03;;;16.77;;
44732;SDS011;30460;50.836;4.390;2022-12-18T14:00:47;25.83;;;17.27;;
44732;SDS011;30460;50.836;4.390;2022-12-18T14:03:24;24.53;;;16.77;;
44732;SDS011;30460;50.836;4.390;2022-12-18T14:05:54;25.57;;;17.83;;
44732;SDS011;30460;50.836;4.390;2022-12-18T14:08:21;25.40;;;18.27;;
44732;SDS011;30460;50.836;4.390;2022-12-18T14:10:48;25.33;;;17.43;;
44732;SDS011;30460;50.836;4.390;2022-12-18T14:13:37;25.87;;;16.83;;
44732;SDS011;30460;50.836;4.390;2022-12-18T14:16:03;24.23;;;17.47;;
44732;SDS011;30460;50.836;4.390;2022-12-18T14:20:59;27.53;;;19.23;;
44732;SDS011;30460;50.836;4.390;2022-12-18T14:23:36;27.20;;;19.70;;
44732;SDS011;30460;50.836;4.390;2022-12-18T14:26:02;26.83;;;18.77;;
44732;SDS011;30460;50.836;4.390;2022-12-18T14:28:29;26.90;;;18.70;;
44732;SDS011;30460;50.836;4.390;2022-12-18T14:30:55;28.83;;;18.97;;
44732;SDS011;30460;50.836;4.390;2022-12-18T14:33:22;28.07;;;18.40;;
44732;SDS011;30460;50.836;4.390;2022-12-18T14:35:55;29.27;;;19.63;;
44732;SDS011;30460;50.836;4.390;2022-12-18T14:41:09;28.70;;;19.40;;
44732;SDS011;30460;50.836;4.390;2022-12-18T14:43:36;29.93;;;20.03;;
44732;SDS011;30460;50.836;4.390;2022-12-18T14:46:03;28.97;;;19.23;;
44732;SDS011;30460;50.836;4.390;2022-12-18T14:48:40;29.23;;;19.57;;
44732;SDS011;30460;50.836;4.390;2022-12-18T14:53:39;26.13;;;18.33;;
44732;SDS011;30460;50.836;4.390;2022-12-18T14:56:26;29.47;;;19.27;;
44732;SDS011;30460;50.836;4.390;2022-12-18T15:01:21;28.00;;;19.40;;
44732;SDS011;30460;50.836;4.390;2022-12-18T15:03:49;26.90;;;19.10;;
44732;SDS011;30460;50.836;4.390;2022-12-18T15:06:15;29.60;;;19.23;;
44732;SDS011;30460;50.836;4.390;2022-12-18T15:08:42;29.57;;;19.27;;
44732;SDS011;30460;50.836;4.390;2022-12-18T15:11:25;27.03;;;18.57;;
44732;SDS011;30460;50.836;4.390;2022-12-18T15:13:51;27.03;;;18.30;;
44732;SDS011;30460;50.836;4.390;2022-12-18T15:16:17;27.40;;;19.00;;
44732;SDS011;30460;50.836;4.390;2022-12-18T15:18:43;29.10;;;19.47;;
44732;SDS011;30460;50.836;4.390;2022-12-18T15:21:16;30.40;;;19.63;;
44732;SDS011;30460;50.836;4.390;2022-12-18T15:26:09;27.13;;;18.83;;
44732;SDS011;30460;50.836;4.390;2022-12-18T15:28:37;33.13;;;21.50;;
44732;SDS011;30460;50.836;4.390;2022-12-18T15:31:20;28.70;;;19.80;;
44732;SDS011;30460;50.836;4.390;2022-12-18T15:36:22;27.13;;;18.33;;
44732;SDS011;30460;50.836;4.390;2022-12-18T15:38:50;29.57;;;19.00;;
44732;SDS011;30460;50.836;4.390;2022-12-18T15:41:17;28.83;;;18.43;;
44732;SDS011;30460;50.836;4.390;2022-12-18T15:43:44;26.97;;;18.37;;
44732;SDS011;30460;50.836;4.390;2022-12-18T15:46:14;28.93;;;18.90;;
44732;SDS011;30460;50.836;4.390;2022-12-18T15:48:42;24.60;;;18.37;;
44732;SDS011;30460;50.836;4.390;2022-12-18T15:51:13;26.60;;;18.03;;
44732;SDS011;30460;50.836;4.390;2022-12-18T15:53:39;27.00;;;18.07;;
44732;SDS011;30460;50.836;4.390;2022-12-18T15:56:09;25.37;;;18.23;;
44732;SDS011;30460;50.836;4.390;2022-12-18T15:58:54;26.93;;;17.67;;
44732;SDS011;30460;50.836;4.390;2022-12-18T16:01:20;28.27;;;18.57;;
44732;SDS011;30460;50.836;4.390;2022-12-18T16:03:47;28.67;;;19.63;;
44732;SDS011;30460;50.836;4.390;2022-12-18T16:06:13;27.53;;;16.97;;
44732;SDS011;30460;50.836;4.390;2022-12-18T16:08:40;27.90;;;18.53;;
44732;SDS011;30460;50.836;4.390;2022-12-18T16:11:08;26.53;;;18.30;;
44732;SDS011;30460;50.836;4.390;2022-12-18T16:13:42;27.37;;;18.17;;
44732;SDS011;30460;50.836;4.390;2022-12-18T16:16:08;24.33;;;16.70;;
44732;SDS011;30460;50.836;4.390;2022-12-18T16:18:34;25.63;;;16.87;;
44732;SDS011;30460;50.836;4.390;2022-12-18T16:21:00;26.60;;;17.73;;
44732;SDS011;30460;50.836;4.390;2022-12-18T16:23:26;27.33;;;17.63;;
44732;SDS011;30460;50.836;4.390;2022-12-18T16:25:52;28.13;;;17.93;;
44732;SDS011;30460;50.836;4.390;2022-12-18T16:28:18;29.00;;;18.37;;
44732;SDS011;30460;50.836;4.390;2022-12-18T16:30:44;26.83;;;17.60;;
44732;SDS011;30460;50.836;4.390;2022-12-18T16:33:10;25.80;;;17.77;;
44732;SDS011;30460;50.836;4.390;2022-12-18T16:35:36;24.97;;;16.77;;
44732;SDS011;30460;50.836;4.390;2022-12-18T16:38:02;26.00;;;17.20;;
44732;SDS011;30460;50.836;4.390;2022-12-18T16:40:28;25.33;;;17.00;;